CCA4580 ZSPD-ZGGG
Flight info
| Callsign | CCA4580 |
|---|---|
| Flight time | N/A |
| Altitude | 38100 |
| Route | NXD91D/35R NXD W131 AKDIM A470 DUBGO W134 ELNEX A599 PLT W19 OLPAB OLPAB1 |
| Aircraft | A346/H-SDE2E3FGHIJ3J4J5M1RWXY/LB1D1 |
Departure
| Time | N/A |
|---|---|
| Airport | Shanghai Pudong International Airport (ZSPD) |
Arrival
| Time | 2026-04-30 11:32 |
|---|---|
| Airport | Guangzhou Baiyun International Airport (ZGGG) |
| Time | Latitude | Longitude | Altitude | Speed | Heading |
|---|---|---|---|---|---|
| 2026-04-30 11:04 | 25.19390 | 114.72285 | 38134 ft | 475 kts | 193° |
| 2026-04-30 11:04 | 25.12977 | 114.70705 | 38134 ft | 475 kts | 193° |
| 2026-04-30 11:05 | 25.06500 | 114.69106 | 38133 ft | 477 kts | 193° |
| 2026-04-30 11:05 | 24.99971 | 114.67496 | 38133 ft | 482 kts | 193° |
| 2026-04-30 11:06 | 24.93378 | 114.65871 | 38134 ft | 483 kts | 192° |
| 2026-04-30 11:06 | 24.86783 | 114.64252 | 38134 ft | 483 kts | 192° |
| 2026-04-30 11:07 | 24.80216 | 114.62638 | 38134 ft | 483 kts | 192° |
| 2026-04-30 11:07 | 24.73714 | 114.60737 | 38134 ft | 483 kts | 198° |
| 2026-04-30 11:08 | 24.67395 | 114.58076 | 38134 ft | 484 kts | 204° |
| 2026-04-30 11:08 | 24.61421 | 114.54721 | 38134 ft | 484 kts | 209° |
| 2026-04-30 11:09 | 24.55579 | 114.51019 | 38135 ft | 484 kts | 210° |
| 2026-04-30 11:09 | 24.49740 | 114.47324 | 38134 ft | 484 kts | 210° |
| 2026-04-30 11:10 | 24.43893 | 114.43643 | 38134 ft | 484 kts | 210° |
| 2026-04-30 11:10 | 24.38022 | 114.39951 | 38134 ft | 484 kts | 210° |
| 2026-04-30 11:11 | 24.32155 | 114.36273 | 38005 ft | 482 kts | 210° |
| 2026-04-30 11:11 | 24.29280 | 114.34473 | 37492 ft | 482 kts | 209° |
| 2026-04-30 11:11 | 24.26338 | 114.32634 | 36703 ft | 485 kts | 209° |
| 2026-04-30 11:11 | 24.23381 | 114.30788 | 35900 ft | 488 kts | 209° |
| 2026-04-30 11:12 | 24.20433 | 114.28946 | 35139 ft | 490 kts | 209° |
| 2026-04-30 11:12 | 24.17484 | 114.27103 | 34370 ft | 492 kts | 210° |
| 2026-04-30 11:12 | 24.14581 | 114.25082 | 33559 ft | 494 kts | 215° |
| 2026-04-30 11:12 | 24.11858 | 114.22767 | 32723 ft | 496 kts | 220° |
| 2026-04-30 11:13 | 24.09343 | 114.20178 | 31861 ft | 498 kts | 226° |
| 2026-04-30 11:13 | 24.07067 | 114.17347 | 31002 ft | 500 kts | 231° |
| 2026-04-30 11:13 | 24.05017 | 114.14246 | 30273 ft | 498 kts | 237° |
| 2026-04-30 11:13 | 24.03253 | 114.10975 | 29629 ft | 495 kts | 242° |
| 2026-04-30 11:14 | 24.01639 | 114.07658 | 28918 ft | 495 kts | 243° |
| 2026-04-30 11:14 | 24.00042 | 114.04308 | 28162 ft | 494 kts | 243° |
| 2026-04-30 11:14 | 23.98463 | 114.01001 | 27535 ft | 491 kts | 243° |
| 2026-04-30 11:14 | 23.96877 | 113.97706 | 26912 ft | 489 kts | 243° |
| 2026-04-30 11:15 | 23.95287 | 113.94421 | 26327 ft | 485 kts | 243° |
| 2026-04-30 11:15 | 23.93707 | 113.91168 | 25802 ft | 480 kts | 243° |
| 2026-04-30 11:15 | 23.92136 | 113.87936 | 25220 ft | 476 kts | 243° |
| 2026-04-30 11:15 | 23.90601 | 113.84780 | 24678 ft | 472 kts | 243° |
| 2026-04-30 11:16 | 23.89051 | 113.81594 | 24163 ft | 467 kts | 243° |
| 2026-04-30 11:16 | 23.87522 | 113.78455 | 23670 ft | 461 kts | 243° |
| 2026-04-30 11:16 | 23.86031 | 113.75391 | 23213 ft | 456 kts | 243° |
| 2026-04-30 11:16 | 23.84540 | 113.72329 | 22753 ft | 450 kts | 243° |
| 2026-04-30 11:17 | 23.83070 | 113.69311 | 22285 ft | 446 kts | 243° |
| 2026-04-30 11:17 | 23.81624 | 113.66347 | 21816 ft | 441 kts | 242° |
| 2026-04-30 11:17 | 23.79921 | 113.63547 | 21330 ft | 439 kts | 232° |
| 2026-04-30 11:17 | 23.77809 | 113.61168 | 20876 ft | 435 kts | 221° |
| 2026-04-30 11:18 | 23.75339 | 113.59212 | 20456 ft | 431 kts | 213° |
| 2026-04-30 11:18 | 23.70269 | 113.55807 | 19557 ft | 424 kts | 212° |
| 2026-04-30 11:18 | 23.67788 | 113.54146 | 19114 ft | 420 kts | 212° |
| 2026-04-30 11:19 | 23.65304 | 113.52467 | 18665 ft | 417 kts | 213° |
| 2026-04-30 11:19 | 23.62832 | 113.50790 | 18217 ft | 414 kts | 212° |
| 2026-04-30 11:19 | 23.62011 | 113.50256 | 18068 ft | 413 kts | 211° |
| 2026-04-30 11:19 | 23.57471 | 113.48012 | 17307 ft | 408 kts | 199° |
| 2026-04-30 11:20 | 23.54614 | 113.47116 | 16862 ft | 406 kts | 195° |
| 2026-04-30 11:20 | 23.49105 | 113.45647 | 15938 ft | 402 kts | 194° |
| 2026-04-30 11:20 | 23.46393 | 113.44927 | 15489 ft | 399 kts | 194° |
| 2026-04-30 11:21 | 23.43667 | 113.44198 | 15046 ft | 397 kts | 194° |
| 2026-04-30 11:21 | 23.40973 | 113.43471 | 14609 ft | 394 kts | 194° |
| 2026-04-30 11:21 | 23.39195 | 113.42992 | 14321 ft | 393 kts | 195° |
| 2026-04-30 11:21 | 23.35656 | 113.42035 | 13284 ft | 387 kts | 195° |
| 2026-04-30 11:22 | 23.33033 | 113.41325 | 11985 ft | 388 kts | 195° |
| 2026-04-30 11:22 | 23.30373 | 113.40606 | 10906 ft | 381 kts | 195° |
| 2026-04-30 11:22 | 23.27784 | 113.39904 | 10286 ft | 362 kts | 195° |
| 2026-04-30 11:22 | 23.25371 | 113.39297 | 9804 ft | 344 kts | 188° |
| 2026-04-30 11:23 | 23.23026 | 113.39429 | 9363 ft | 327 kts | 164° |
| 2026-04-30 11:23 | 23.21047 | 113.40476 | 9017 ft | 308 kts | 144° |
| 2026-04-30 11:23 | 23.18078 | 113.43489 | 8426 ft | 276 kts | 147° |
| 2026-04-30 11:24 | 23.16346 | 113.44203 | 8155 ft | 261 kts | 178° |
| 2026-04-30 11:24 | 23.14625 | 113.43903 | 7927 ft | 239 kts | 207° |
| 2026-04-30 11:24 | 23.13445 | 113.42779 | 7626 ft | 217 kts | 243° |
| 2026-04-30 11:25 | 23.13330 | 113.39821 | 6839 ft | 194 kts | 285° |
| 2026-04-30 11:25 | 23.13647 | 113.38393 | 6349 ft | 193 kts | 287° |
| 2026-04-30 11:25 | 23.14204 | 113.36023 | 5545 ft | 195 kts | 288° |
| 2026-04-30 11:26 | 23.15011 | 113.32645 | 4358 ft | 196 kts | 287° |
| 2026-04-30 11:26 | 23.15353 | 113.31216 | 3874 ft | 194 kts | 287° |
| 2026-04-30 11:26 | 23.15691 | 113.29812 | 3513 ft | 186 kts | 289° |
| 2026-04-30 11:27 | 23.16200 | 113.28532 | 3181 ft | 182 kts | 306° |
| 2026-04-30 11:27 | 23.17205 | 113.27737 | 2853 ft | 180 kts | 341° |
| 2026-04-30 11:27 | 23.18433 | 113.27563 | 2540 ft | 179 kts | 360° |
| 2026-04-30 11:27 | 23.19684 | 113.27708 | 2213 ft | 179 kts | 8° |
| 2026-04-30 11:28 | 23.22106 | 113.28296 | 1912 ft | 178 kts | 12° |
| 2026-04-30 11:28 | 23.23328 | 113.28628 | 1910 ft | 178 kts | 12° |
| 2026-04-30 11:28 | 23.24532 | 113.28954 | 1907 ft | 178 kts | 12° |
| 2026-04-30 11:29 | 23.25709 | 113.29278 | 1882 ft | 163 kts | 12° |
| 2026-04-30 11:29 | 23.26796 | 113.29574 | 1807 ft | 157 kts | 12° |
| 2026-04-30 11:29 | 23.28876 | 113.30135 | 1396 ft | 151 kts | 12° |
| 2026-04-30 11:30 | 23.30586 | 113.30595 | 1061 ft | 150 kts | 12° |
| 2026-04-30 11:30 | 23.31940 | 113.30960 | 795 ft | 150 kts | 12° |
| 2026-04-30 11:30 | 23.32948 | 113.31234 | 593 ft | 149 kts | 13° |
| 2026-04-30 11:31 | 23.33958 | 113.31517 | 390 ft | 148 kts | 12° |
| 2026-04-30 11:31 | 23.34964 | 113.31786 | 217 ft | 147 kts | 13° |
| 2026-04-30 11:31 | 23.35954 | 113.32042 | 69 ft | 134 kts | 11° |
| 2026-04-30 11:31 | 23.36698 | 113.32267 | 60 ft | 83 kts | 13° |
| 2026-04-30 11:32 | 23.37084 | 113.32363 | 60 ft | 34 kts | 14° |
| 2026-04-30 11:32 | 23.37281 | 113.32384 | 60 ft | 23 kts | 352° |
| 2026-04-30 11:32 | 23.37351 | 113.32373 | 60 ft | 12 kts | 352° |
| 2026-04-30 11:33 | 23.37437 | 113.32292 | 60 ft | 5 kts | 231° |
| 2026-04-30 11:33 | 23.37388 | 113.32264 | 60 ft | 9 kts | 194° |
| 2026-04-30 11:33 | 23.37365 | 113.32256 | 60 ft | 0 kts | 198° |
| 2026-04-30 11:34 | 23.37361 | 113.32255 | 60 ft | 2 kts | 198° |
| 2026-04-30 11:34 | 23.37332 | 113.32244 | 60 ft | 6 kts | 198° |
| 2026-04-30 11:34 | 23.37275 | 113.32226 | 60 ft | 10 kts | 193° |
| 2026-04-30 11:34 | 23.37204 | 113.32207 | 60 ft | 8 kts | 193° |
| 2026-04-30 11:35 | 23.37157 | 113.32188 | 60 ft | 8 kts | 222° |
| 2026-04-30 11:35 | 23.37146 | 113.32120 | 60 ft | 11 kts | 276° |
| 2026-04-30 11:35 | 23.37131 | 113.32024 | 60 ft | 14 kts | 238° |
| 2026-04-30 11:35 | 23.37072 | 113.31944 | 60 ft | 12 kts | 223° |
| 2026-04-30 11:36 | 23.37016 | 113.31904 | 60 ft | 5 kts | 225° |
| 2026-04-30 11:36 | 23.37007 | 113.31847 | 60 ft | 8 kts | 275° |
| 2026-04-30 11:36 | 23.37017 | 113.31799 | 60 ft | 3 kts | 286° |
| 2026-04-30 11:36 | 23.37018 | 113.31793 | 60 ft | 0 kts | 286° |